Time,TemperatureF,DewpointF,PressureIn,WindDirection,WindDirectionDegrees,WindSpeedMPH,WindSpeedGustMPH,Humidity,HourlyPrecipIn,Conditions,Clouds,dailyrainin,SolarRadiationWatts/m^2,SoftwareType,DateUTC
2013-01-07 00:00:00,47.0,44.8,30.35,WSW,246,0.0,6.0,92,0.00,-RA,OVC,0.00,0.0,WeatherDisplay:10.37,2013-01-07 00:00:00,
2013-01-07 00:30:00,46.9,44.7,30.34,West,261,1.0,6.0,92,0.00,-RA,OVC,0.00,0.0,WeatherDisplay:10.37,2013-01-07 00:30:00,
2013-01-07 01:00:00,46.8,44.6,30.34,WNW,291,1.0,6.0,92,0.00,-RA,OVC,0.00,0.0,WeatherDisplay:10.37,2013-01-07 01:00:00,
2013-01-07 01:30:00,46.5,44.3,30.34,West,268,1.0,7.0,92,0.00,-RA,OVC,0.00,0.0,WeatherDisplay:10.37,2013-01-07 01:30:00,
2013-01-07 02:00:00,46.1,44.1,30.33,West,271,3.0,9.0,93,0.00,-RA,OVC,0.00,0.0,WeatherDisplay:10.37,2013-01-07 02:00:00,
2013-01-07 02:30:00,45.7,44.0,30.33,WNW,294,2.0,7.0,94,0.00,-RA,OVC,0.00,0.0,WeatherDisplay:10.37,2013-01-07 02:30:00,
2013-01-07 03:00:00,45.4,44.0,30.33,WNW,282,1.0,7.0,95,0.00,-RA,OVC,0.00,0.0,WeatherDisplay:10.37,2013-01-07 03:00:00,
2013-01-07 03:30:00,45.2,43.8,30.33,West,278,1.0,6.0,95,0.00,-RA,OVC,0.00,0.0,WeatherDisplay:10.37,2013-01-07 03:30:00,
2013-01-07 04:00:00,44.7,43.1,30.31,West,276,2.0,10.0,94,0.00,-RA,OVC,0.00,0.0,WeatherDisplay:10.37,2013-01-07 04:00:00,
2013-01-07 04:30:00,44.6,43.0,30.30,West,279,3.0,6.0,94,0.00,-RA,OVC,0.00,0.0,WeatherDisplay:10.37,2013-01-07 04:30:00,
2013-01-07 05:00:00,44.8,43.1,30.30,West,278,3.0,6.0,94,0.00,-RA,OVC,0.00,0.0,WeatherDisplay:10.37,2013-01-07 05:00:00,
2013-01-07 05:30:00,45.0,43.1,30.29,West,276,0.0,5.0,93,0.00,-RA,OVC,0.00,0.0,WeatherDisplay:10.37,2013-01-07 05:30:00,
2013-01-07 06:00:00,45.2,42.8,30.29,West,276,1.0,5.0,91,0.00,-RA,OVC,0.00,0.0,WeatherDisplay:10.37,2013-01-07 06:00:00,
2013-01-07 06:30:00,45.5,43.0,30.29,West,276,1.0,5.0,91,0.00,-RA,OVC,0.00,0.0,WeatherDisplay:10.37,2013-01-07 06:30:00,
2013-01-07 07:00:00,45.4,42.9,30.29,WSW,238,1.0,6.0,91,0.00,-RA,OVC,0.00,0.0,WeatherDisplay:10.37,2013-01-07 07:00:00,
2013-01-07 07:30:00,45.5,43.0,30.29,WSW,237,2.0,6.0,91,0.00,-RA,OVC,0.00,0.0,WeatherDisplay:10.37,2013-01-07 07:30:00,
2013-01-07 08:00:00,45.4,43.2,30.30,West,260,0.0,6.0,92,0.00,-RA,OVC,0.00,0.0,WeatherDisplay:10.37,2013-01-07 08:00:00,
2013-01-07 08:30:00,45.4,43.5,30.30,SW,236,1.0,6.0,93,0.00,-RA,OVC,0.00,7.0,WeatherDisplay:10.37,2013-01-07 08:30:00,
2013-01-07 09:00:00,45.5,43.6,30.29,WSW,243,0.0,6.0,93,0.00,-RA,OVC,0.00,12.0,WeatherDisplay:10.37,2013-01-07 09:00:00,
2013-01-07 09:30:00,45.7,43.5,30.29,WSW,238,2.0,9.0,92,0.00,-RA,OVC,0.00,16.0,WeatherDisplay:10.37,2013-01-07 09:30:00,
2013-01-07 10:00:00,45.9,43.7,30.29,SW,222,1.0,6.0,92,0.00,-RA,OVC,0.00,28.0,WeatherDisplay:10.37,2013-01-07 10:00:00,
2013-01-07 10:30:00,46.2,44.0,30.28,SW,229,0.0,10.0,92,0.00,-RA,OVC,0.00,35.0,WeatherDisplay:10.37,2013-01-07 10:30:00,
2013-01-07 11:00:00,46.6,44.1,30.28,WSW,255,3.0,6.0,91,0.00,-RA,OVC,0.00,39.0,WeatherDisplay:10.37,2013-01-07 11:00:00,
2013-01-07 11:30:00,46.8,44.0,30.28,SW,222,2.0,7.0,90,0.00,-RA,OVC,0.00,60.0,WeatherDisplay:10.37,2013-01-07 11:30:00,
2013-01-07 12:00:00,47.0,44.2,30.26,SW,214,2.0,7.0,90,0.00,-RA,OVC,0.00,88.0,WeatherDisplay:10.37,2013-01-07 12:00:00,
2013-01-07 12:30:00,47.3,44.2,30.25,WSW,247,3.0,12.0,89,0.00,-RA,OVC,0.00,62.0,WeatherDisplay:10.37,2013-01-07 12:30:00,
2013-01-07 13:00:00,47.5,44.1,30.25,SW,214,2.0,10.0,88,0.00,-RA,OVC,0.00,47.0,WeatherDisplay:10.37,2013-01-07 13:00:00,
2013-01-07 13:30:00,47.6,44.2,30.25,SW,228,2.0,12.0,88,0.00,-RA,OVC,0.00,39.0,WeatherDisplay:10.37,2013-01-07 13:30:00,
2013-01-07 14:00:00,47.5,44.5,30.24,SW,223,6.0,12.0,89,0.00,-RA,OVC,0.00,26.0,WeatherDisplay:10.37,2013-01-07 14:00:00,
2013-01-07 14:30:00,47.6,44.2,30.23,WSW,242,2.0,12.0,88,0.00,-RA,OVC,0.00,28.0,WeatherDisplay:10.37,2013-01-07 14:30:00,
2013-01-07 15:00:00,47.7,44.3,30.23,WSW,248,2.0,9.0,88,0.00,-RA,OVC,0.00,18.0,WeatherDisplay:10.37,2013-01-07 15:00:00,
2013-01-07 15:30:00,47.7,44.6,30.23,SW,233,0.0,10.0,89,0.00,-RA,OVC,0.00,11.0,WeatherDisplay:10.37,2013-01-07 15:30:00,
2013-01-07 16:00:00,47.4,44.3,30.23,SW,235,1.0,10.0,89,0.00,-RA,OVC,0.00,0.0,WeatherDisplay:10.37,2013-01-07 16:00:00,
2013-01-07 16:30:00,47.1,44.0,30.23,SW,227,5.0,10.0,89,0.00,-RA,OVC,0.00,0.0,WeatherDisplay:10.37,2013-01-07 16:30:00,
2013-01-07 17:00:00,46.8,44.0,30.23,WSW,246,3.0,10.0,90,0.00,-RA,OVC,0.00,0.0,WeatherDisplay:10.37,2013-01-07 17:00:00,
2013-01-07 17:30:00,46.7,44.2,30.23,SW,227,1.0,9.0,91,0.00,-RA,OVC,0.00,0.0,WeatherDisplay:10.37,2013-01-07 17:30:00,
2013-01-07 18:00:00,46.8,44.3,30.23,South,190,1.0,10.0,91,0.00,-RA,OVC,0.00,0.0,WeatherDisplay:10.37,2013-01-07 18:00:00,
2013-01-07 18:30:00,47.1,44.6,30.23,WSW,244,3.0,10.0,91,0.00,-RA,OVC,0.00,0.0,WeatherDisplay:10.37,2013-01-07 18:30:00,
2013-01-07 19:00:00,47.3,44.8,30.23,WSW,248,2.0,7.0,91,0.00,-RA,OVC,0.00,0.0,WeatherDisplay:10.37,2013-01-07 19:00:00,
2013-01-07 19:30:00,47.7,45.2,30.22,SW,220,2.0,10.0,91,0.00,-RA,OVC,0.00,0.0,WeatherDisplay:10.37,2013-01-07 19:30:00,
2013-01-07 20:00:00,47.9,45.1,30.22,SW,225,1.0,8.0,90,0.00,-RA,OVC,0.00,0.0,WeatherDisplay:10.37,2013-01-07 20:00:00,
2013-01-07 20:30:00,48.2,45.4,30.22,SW,222,1.0,10.0,90,0.00,-RA,OVC,0.00,0.0,WeatherDisplay:10.37,2013-01-07 20:30:00,
2013-01-07 21:00:00,48.3,45.5,30.22,WSW,249,1.0,9.0,90,0.00,-RA,OVC,0.00,0.0,WeatherDisplay:10.37,2013-01-07 21:00:00,
2013-01-07 21:30:00,48.5,45.4,30.22,SSW,208,1.0,9.0,89,0.00,-RA,OVC,0.00,0.0,WeatherDisplay:10.37,2013-01-07 21:30:00,
2013-01-07 22:00:00,48.8,45.4,30.22,WSW,247,0.0,9.0,88,0.00,-RA,OVC,0.00,0.0,WeatherDisplay:10.37,2013-01-07 22:00:00,
2013-01-07 22:30:00,49.0,45.3,30.21,WSW,257,1.0,7.0,87,0.00,-RA,OVC,0.00,0.0,WeatherDisplay:10.37,2013-01-07 22:30:00,
2013-01-07 23:00:00,49.1,45.1,30.21,WSW,256,1.0,9.0,86,0.00,-RA,OVC,0.00,0.0,WeatherDisplay:10.37,2013-01-07 23:00:00,
2013-01-07 23:30:00,49.1,45.1,30.21,WSW,250,2.0,7.0,86,0.00,-RA,OVC,0.00,0.0,WeatherDisplay:10.37,2013-01-07 23:30:00,